Airfield :
LOGIN :

Register | Disclaimer

   EN    FR    IT 

 










Legend :    VFR   Marginal VFR   IFR   Intensive IFR   Very Intensive IFR
Visi :
Ceiling :
>= 8 km
>= 3000ft
5 to 8 km
1000 to 3000 ft
1500m to 5 km
500 to 1000 ft
800 to 1500m
200 to 500 ft
< 800m
< 200 ft
Symbols :   Thunderstorms  Fog  Heavy snow  Heavy precipitations  Wind > 20 kt
SIGMETs :     Misc.  Thunderstorms  Icing  Turbulence  Mountain Waves  Volcanic Ashes






- Airport Elevation : 1302 ft
- IATA code : GNB


LFLS - Grenoble / St. Geoirs

CURRENT METAR :
  • 051900Z AUTO 08009KT 5000 BR NSC M01/M02 Q1024 NOSIG

EXPIRED METARs :
  • 051830Z AUTO 08008KT 4900 BR NSC M01/M02 Q1024 BECMG 9999 NSW
  • 051800Z AUTO 07007KT 5000 BR NSC 01/00 Q1023 NOSIG
  • 051730Z AUTO 07005KT 6000 NSC 00/M00 Q1023 NOSIG
  • 051700Z AUTO 12005KT CAVOK 01/00 Q1023 NOSIG
  • 051630Z AUTO 11003KT CAVOK 02/00 Q1023 NOSIG

TAF AMD TAF LFLS
Valid from the 05 at 18:00 until the 06 at 15:00 UTC


051833Z 0518/0615 09005KT 6000 NSC
TEMPO 0518/0609 3000 BR
PROB30
TEMPO 0600/0607 0500 FZFG VV///
ATIS : +33 4 76 65 55 89



MET'MAP, your aeronautical weather chart ! - Copyright ORBIFLY December 2007 - Disclaimer

ORBIFLY MET'MAP TEAM :

Programming & Development : Alexandra Zaïnal
Concept & original design : Baudouin d'Aumeries
Assistance for programming : Marc-Olivier Méhu
Technical & hardware support : Manuel Goepfert

Contact : metmap@orbifly.com




SOURCES & CREDITS :

   NOAA